Time;durP1;ratioP1;P1;durP2;ratioP2;P2;SDS_P1;SDS_P2;PMS_P1;PMS_P2;Temp;Humidity;BMP_temperature;BMP_pressure;BME280_temperature;BME280_humidity;BME280_pressure;Samples;Min_cycle;Max_cycle;Signal;HPM_P1;HPM_P2
2022/01/16 00:04:48;;;;;;;27.63;20.23;;;13.20;78.10;;;;;;5149473;28;20456;-30
2022/01/16 00:07:19;;;;;;;29.13;22.57;;;13.20;78.20;;;;;;5133030;28;20543;-31
2022/01/16 00:09:50;;;;;;;31.10;23.10;;;13.20;78.20;;;;;;5149358;28;20074;-31
2022/01/16 00:12:23;;;;;;;31.97;22.87;;;13.20;78.10;;;;;;5149345;28;20074;-31
2022/01/16 00:14:54;;;;;;;28.05;21.58;;;13.20;78.30;;;;;;5149300;28;20050;-30
2022/01/16 00:17:27;;;;;;;29.33;20.77;;;13.20;78.30;;;;;;5149111;28;20082;-30
2022/01/16 00:19:58;;;;;;;27.45;20.63;;;13.10;78.30;;;;;;5149413;28;20047;-31
2022/01/16 00:22:34;;;;;;;24.23;17.27;;;13.10;78.40;;;;;;5132520;28;20077;-31
2022/01/16 00:25:05;;;;;;;23.40;16.37;;;13.10;78.20;;;;;;5149241;28;20050;-30
2022/01/16 00:27:36;;;;;;;22.90;17.43;;;13.10;78.30;;;;;;5148705;28;20070;-30
2022/01/16 00:30:07;;;;;;;24.33;19.17;;;13.00;78.30;;;;;;5149792;28;20051;-30
2022/01/16 00:32:39;;;;;;;26.23;21.67;;;13.10;78.40;;;;;;5148913;28;20405;-31
2022/01/16 00:35:11;;;;;;;28.77;22.60;;;13.00;78.30;;;;;;5149051;28;20049;-31
2022/01/16 00:37:42;;;;;;;34.90;24.10;;;13.10;78.50;;;;;;5149128;28;20054;-31
2022/01/16 00:40:13;;;;;;;38.37;26.73;;;13.10;78.40;;;;;;5131981;28;20057;-30
2022/01/16 00:42:44;;;;;;;34.93;24.93;;;13.00;78.40;;;;;;5115558;28;20074;-30
2022/01/16 00:45:15;;;;;;;32.93;23.70;;;13.00;78.40;;;;;;5131783;28;20047;-31
2022/01/16 00:47:46;;;;;;;37.93;28.00;;;13.00;78.40;;;;;;5148961;28;20070;-31
2022/01/16 00:50:17;;;;;;;35.93;25.93;;;13.10;78.50;;;;;;5148760;28;20046;-31
2022/01/16 00:52:48;;;;;;;32.23;26.10;;;13.00;78.60;;;;;;5148361;28;20062;-30
2022/01/16 00:55:19;;;;;;;37.93;29.77;;;13.00;79.00;;;;;;5148653;28;20389;-30
2022/01/16 00:57:52;;;;;;;33.80;26.50;;;13.10;79.50;;;;;;5131500;28;20065;-30
2022/01/16 01:00:23;;;;;;;31.43;25.57;;;13.00;79.40;;;;;;5148326;28;20051;-30
2022/01/16 01:02:55;;;;;;;33.10;25.07;;;13.10;79.30;;;;;;5148535;28;20446;-31
2022/01/16 01:05:26;;;;;;;33.53;25.07;;;13.00;79.10;;;;;;5148269;28;20047;-30
2022/01/16 01:07:57;;;;;;;30.83;23.40;;;13.00;78.90;;;;;;5148769;28;20046;-30
2022/01/16 01:10:34;;;;;;;30.07;23.53;;;13.00;78.80;;;;;;5131323;28;20051;-32
2022/01/16 01:13:21;;;;;;;30.70;24.37;;;13.00;78.80;;;;;;5148318;28;20054;-30
2022/01/16 01:15:59;;;;;;;34.27;25.10;;;13.00;78.70;;;;;;5133444;28;20489;-30
2022/01/16 01:18:31;;;;;;;38.13;27.00;;;13.00;78.60;;;;;;5148695;28;20078;-31
2022/01/16 01:21:05;;;;;;;37.72;30.02;;;13.00;78.50;;;;;;5148437;28;20049;-30
2022/01/16 01:23:36;;;;;;;41.57;31.43;;;13.00;78.40;;;;;;5148182;28;20484;-30
2022/01/16 01:26:07;;;;;;;40.37;30.27;;;13.00;78.50;;;;;;5148247;28;20053;-31
2022/01/16 01:28:38;;;;;;;39.80;31.47;;;13.00;78.40;;;;;;5148124;28;20074;-32
2022/01/16 01:31:11;;;;;;;41.80;31.83;;;13.00;78.50;;;;;;5114290;28;20493;-33
2022/01/16 01:33:43;;;;;;;41.73;32.53;;;13.00;78.30;;;;;;5147897;28;20400;-30
2022/01/16 01:36:13;;;;;;;38.90;31.47;;;13.00;78.40;;;;;;5147727;28;20047;-32
2022/01/16 01:38:44;;;;;;;39.70;31.60;;;13.00;78.30;;;;;;5131126;28;20054;-31
2022/01/16 01:41:15;;;;;;;40.37;32.83;;;13.00;78.30;;;;;;5148102;28;20050;-30
2022/01/16 01:52:16;;;;;;;43.60;34.07;;;13.00;78.40;;;;;;5147599;28;20061;-31
2022/01/16 01:54:47;;;;;;;39.23;31.90;;;12.90;78.20;;;;;;5147595;28;20076;-31
2022/01/16 01:57:18;;;;;;;39.57;31.83;;;13.00;78.10;;;;;;5114325;28;20043;-30
2022/01/16 01:59:49;;;;;;;39.47;30.10;;;12.90;78.00;;;;;;5130069;28;20058;-31
2022/01/16 02:02:21;;;;;;;41.83;31.73;;;12.90;77.90;;;;;;5147223;28;20404;-32
2022/01/16 02:04:52;;;;;;;40.77;30.97;;;13.00;77.90;;;;;;5147242;28;20509;-30
2022/01/16 02:07:23;;;;;;;38.77;29.03;;;12.90;77.90;;;;;;5147457;28;20130;-31
2022/01/16 02:09:54;;;;;;;40.60;32.03;;;12.90;77.90;;;;;;5147141;28;20054;-31
2022/01/16 02:12:25;;;;;;;37.43;29.00;;;12.90;77.80;;;;;;5114088;28;20118;-31
2022/01/16 02:15:17;;;;;;;35.80;27.23;;;12.90;77.80;;;;;;5130073;28;20121;-31
2022/01/16 02:32:39;;;;;;;39.07;28.53;;;12.90;78.00;;;;;;5147072;28;20053;-31
2022/01/16 02:35:03;;;;;;;38.93;28.57;;;12.90;78.10;;;;;;5146520;28;20101;-32
2022/01/16 02:37:34;;;;;;;38.13;28.57;;;12.90;78.10;;;;;;5146981;28;20046;-31
2022/01/16 02:40:16;;;;;;;34.37;26.27;;;12.90;78.10;;;;;;5104641;29;20505;-31
2022/01/16 02:42:50;;;;;;;37.17;26.17;;;12.90;78.10;;;;;;5105194;29;20413;-30
2022/01/16 02:45:32;;;;;;;36.20;25.73;;;12.90;78.10;;;;;;5104784;29;20082;-31
2022/01/16 02:48:06;;;;;;;37.40;29.70;;;12.90;78.10;;;;;;5104643;29;20048;-31
2022/01/16 02:50:37;;;;;;;52.05;34.80;;;12.90;78.10;;;;;;5104761;29;20055;-31
2022/01/16 02:53:11;;;;;;;45.57;32.30;;;12.90;78.30;;;;;;5104632;29;20048;-30
2022/01/16 02:55:44;;;;;;;39.33;29.23;;;12.90;78.30;;;;;;5104536;29;20063;-31
2022/01/16 02:58:15;;;;;;;41.35;28.52;;;12.90;78.30;;;;;;5089067;29;20095;-30
2022/01/16 03:00:46;;;;;;;47.97;32.27;;;12.90;78.30;;;;;;5088649;29;20055;-31
2022/01/16 03:03:17;;;;;;;39.60;28.33;;;12.90;78.40;;;;;;5104593;29;20048;-30
2022/01/16 03:05:48;;;;;;;40.17;26.83;;;12.90;78.40;;;;;;5104410;29;20078;-31
2022/01/16 03:08:19;;;;;;;38.67;28.13;;;12.90;78.60;;;;;;5104377;29;20444;-30
2022/01/16 03:13:26;;;;;;;35.43;26.13;;;12.90;78.60;;;;;;5146908;28;20047;-30
2022/01/16 03:15:57;;;;;;;35.00;24.50;;;12.90;78.70;;;;;;5129302;28;20126;-31
2022/01/16 03:24:07;;;;;;;30.53;22.80;;;12.90;78.90;;;;;;5146546;28;20113;-31
2022/01/16 03:26:37;;;;;;;30.00;23.13;;;12.90;78.90;;;;;;5145966;28;20043;-32
2022/01/16 03:29:09;;;;;;;31.33;22.23;;;12.90;79.10;;;;;;5146027;28;20051;-30
2022/01/16 03:31:39;;;;;;;26.50;19.20;;;12.90;79.20;;;;;;5146279;28;20053;-32
2022/01/16 03:34:11;;;;;;;27.23;20.60;;;12.80;79.10;;;;;;5129312;28;20043;-32
2022/01/16 03:36:42;;;;;;;27.10;19.13;;;12.90;79.30;;;;;;5146156;28;20054;-31
2022/01/16 03:39:13;;;;;;;27.47;19.07;;;12.80;79.40;;;;;;5113065;28;20050;-31
2022/01/16 03:41:44;;;;;;;31.13;20.80;;;12.90;79.40;;;;;;5146171;28;20051;-31
2022/01/16 03:44:15;;;;;;;31.23;22.30;;;12.80;79.60;;;;;;5128791;28;20051;-31
2022/01/16 03:46:46;;;;;;;28.23;20.00;;;12.80;79.90;;;;;;5112988;28;20077;-32
2022/01/16 03:49:19;;;;;;;27.60;19.80;;;12.80;80.10;;;;;;5146159;28;20043;-31
2022/01/16 03:51:51;;;;;;;29.27;20.65;;;12.80;80.10;;;;;;5146049;28;20145;-30
2022/01/16 03:54:27;;;;;;;26.13;19.20;;;12.90;80.00;;;;;;5129519;28;20078;-29
2022/01/16 03:56:58;;;;;;;28.37;19.13;;;12.90;80.30;;;;;;5146331;28;20049;-31
2022/01/16 03:59:30;;;;;;;25.50;17.20;;;12.90;79.60;;;;;;5146013;28;20524;-30
2022/01/16 04:02:01;;;;;;;23.13;16.40;;;12.90;79.50;;;;;;5129325;28;20039;-32
2022/01/16 04:04:32;;;;;;;28.83;17.90;;;12.90;79.60;;;;;;5128798;28;20051;-31
2022/01/16 04:07:03;;;;;;;23.70;16.40;;;12.90;79.70;;;;;;5148438;28;20051;-30
2022/01/16 04:09:34;;;;;;;24.17;16.70;;;12.90;79.70;;;;;;5132427;28;20532;-32
2022/01/16 04:12:07;;;;;;;23.10;16.47;;;12.90;79.60;;;;;;5149743;28;20042;-30
2022/01/16 04:17:20;;;;;;;23.43;15.63;;;12.90;80.00;;;;;;5149896;28;20134;-31
2022/01/16 04:19:51;;;;;;;26.83;16.05;;;12.90;79.70;;;;;;5149397;28;20077;-30
2022/01/16 04:22:22;;;;;;;25.33;15.90;;;12.90;79.70;;;;;;5149346;28;20082;-31
2022/01/16 04:24:54;;;;;;;22.97;14.40;;;12.90;79.60;;;;;;5149358;28;20130;-31
2022/01/16 04:27:25;;;;;;;21.63;15.10;;;12.90;79.60;;;;;;5148838;28;20126;-30
2022/01/16 04:29:56;;;;;;;21.80;15.93;;;12.90;79.60;;;;;;5149281;28;20477;-30
2022/01/16 04:32:27;;;;;;;25.90;16.97;;;12.90;79.70;;;;;;5149195;28;20051;-31
2022/01/16 04:34:58;;;;;;;25.70;15.43;;;12.90;79.60;;;;;;5149301;28;20461;-31
2022/01/16 04:37:29;;;;;;;23.80;14.97;;;12.90;79.70;;;;;;5148888;28;20082;-31
2022/01/16 04:40:02;;;;;;;24.20;16.17;;;12.90;79.50;;;;;;5149233;28;20053;-30
2022/01/16 04:45:23;;;;;;;24.67;17.00;;;12.90;79.40;;;;;;5149576;28;20074;-30
2022/01/16 04:47:55;;;;;;;30.67;16.97;;;12.90;79.40;;;;;;5131776;28;20454;-31
2022/01/16 04:50:27;;;;;;;23.50;16.13;;;12.90;79.40;;;;;;5115400;28;20094;-30
2022/01/16 04:52:58;;;;;;;24.23;17.27;;;12.90;79.40;;;;;;5148771;28;20050;-30
2022/01/16 04:55:29;;;;;;;27.67;18.17;;;12.90;79.30;;;;;;5131537;28;20507;-32
2022/01/16 04:58:00;;;;;;;27.90;18.73;;;13.00;79.50;;;;;;5148713;28;20043;-30
2022/01/16 05:00:31;;;;;;;27.67;18.30;;;12.90;79.50;;;;;;5148863;28;20059;-30
2022/01/16 05:03:02;;;;;;;30.10;19.27;;;12.90;79.40;;;;;;5131189;28;20373;-31
2022/01/16 05:05:33;;;;;;;27.67;20.07;;;12.90;79.50;;;;;;5148792;28;20074;-30
2022/01/16 05:08:04;;;;;;;32.33;21.23;;;13.00;79.40;;;;;;5148558;28;20507;-31
2022/01/16 05:10:35;;;;;;;29.43;20.73;;;12.90;79.40;;;;;;5148528;28;20524;-31
2022/01/16 05:18:43;;;;;;;27.90;21.13;;;12.90;79.10;;;;;;5147790;28;20046;-30
2022/01/16 05:21:14;;;;;;;30.80;21.17;;;13.00;78.90;;;;;;5148260;28;20501;-31
2022/01/16 05:23:45;;;;;;;33.27;23.13;;;13.00;78.80;;;;;;5148284;28;20070;-31
2022/01/16 05:26:18;;;;;;;30.20;21.90;;;12.90;78.60;;;;;;5147564;28;20061;-31
2022/01/16 05:28:49;;;;;;;26.50;20.17;;;12.90;78.60;;;;;;5131320;28;20130;-31
2022/01/16 05:31:20;;;;;;;31.57;22.37;;;12.90;78.50;;;;;;5130982;28;20050;-30
2022/01/16 05:33:51;;;;;;;31.57;23.00;;;12.90;78.60;;;;;;5147986;28;20045;-32
2022/01/16 05:36:22;;;;;;;30.03;24.57;;;13.00;78.60;;;;;;5114907;28;20050;-31
2022/01/16 05:38:53;;;;;;;32.80;23.47;;;12.90;78.70;;;;;;5148235;28;20051;-31
2022/01/16 05:41:24;;;;;;;30.23;21.13;;;12.90;79.00;;;;;;5148024;28;20050;-32
2022/01/16 05:43:55;;;;;;;28.90;19.87;;;12.90;79.60;;;;;;5147846;28;20506;-31
2022/01/16 05:46:26;;;;;;;29.00;19.80;;;12.80;79.70;;;;;;5147574;28;20070;-31
2022/01/16 05:48:57;;;;;;;25.97;18.83;;;12.90;79.60;;;;;;5147745;28;20050;-32
2022/01/16 05:51:28;;;;;;;28.90;19.27;;;12.90;79.40;;;;;;5147700;28;20074;-31
2022/01/16 05:53:59;;;;;;;27.00;20.23;;;12.90;79.10;;;;;;5147430;28;20073;-30
2022/01/16 05:56:30;;;;;;;32.63;21.33;;;12.90;79.20;;;;;;5130326;28;20448;-31
2022/01/16 05:59:01;;;;;;;25.77;17.97;;;12.90;79.30;;;;;;5147699;28;20050;-32
2022/01/16 06:01:32;;;;;;;31.23;20.23;;;12.90;79.30;;;;;;5147738;28;20448;-33
2022/01/16 06:04:03;;;;;;;30.27;19.43;;;12.90;79.20;;;;;;5147048;28;20046;-30
2022/01/16 06:06:34;;;;;;;30.40;19.87;;;12.90;79.20;;;;;;5147368;28;20073;-31
2022/01/16 06:09:05;;;;;;;25.07;18.43;;;12.90;79.20;;;;;;5147340;28;20074;-31
2022/01/16 06:11:36;;;;;;;26.77;19.00;;;12.90;79.10;;;;;;5147041;28;20055;-30
2022/01/16 06:14:07;;;;;;;28.17;20.53;;;12.80;79.00;;;;;;5147186;28;20050;-30
2022/01/16 06:16:38;;;;;;;27.57;19.87;;;12.80;79.00;;;;;;5147039;28;20070;-31
2022/01/16 06:19:09;;;;;;;35.27;22.73;;;12.80;79.00;;;;;;5147125;28;20085;-31
2022/01/16 06:21:40;;;;;;;33.17;20.50;;;12.90;79.00;;;;;;5129780;28;20047;-31
2022/01/16 06:24:11;;;;;;;59.53;33.70;;;12.80;78.90;;;;;;5146659;28;20074;-30
2022/01/16 06:26:42;;;;;;;43.63;27.07;;;12.80;78.90;;;;;;5146610;28;20047;-30
2022/01/16 06:29:13;;;;;;;52.07;32.50;;;12.80;78.90;;;;;;5146735;28;20094;-30
2022/01/16 06:31:44;;;;;;;40.47;27.07;;;12.80;78.90;;;;;;5146141;28;20138;-29
2022/01/16 06:34:15;;;;;;;41.83;29.00;;;12.80;79.20;;;;;;5146726;28;20424;-29
2022/01/16 06:36:47;;;;;;;32.10;22.47;;;12.70;79.40;;;;;;5146656;28;20433;-29
2022/01/16 06:39:17;;;;;;;65.77;33.80;;;12.80;79.20;;;;;;5146747;28;20101;-30
2022/01/16 06:41:49;;;;;;;51.27;28.40;;;12.90;79.10;;;;;;5143643;28;20051;-30
2022/01/16 06:44:20;;;;;;;30.63;21.37;;;13.10;78.70;;;;;;5127289;28;20400;-30
2022/01/16 06:46:51;;;;;;;28.10;19.53;;;13.30;78.50;;;;;;5126935;28;20047;-31
2022/01/16 06:49:22;;;;;;;29.17;18.90;;;13.40;78.10;;;;;;5144664;28;20053;-32
2022/01/16 06:51:53;;;;;;;26.63;19.43;;;13.50;77.90;;;;;;5127102;28;20105;-31
2022/01/16 06:54:24;;;;;;;25.03;19.17;;;13.60;77.70;;;;;;5144432;28;20452;-30
2022/01/16 06:56:55;;;;;;;29.03;20.57;;;13.60;77.40;;;;;;5144072;28;20059;-31
2022/01/16 06:59:26;;;;;;;26.03;18.80;;;13.60;77.30;;;;;;5144085;28;20066;-32
2022/01/16 07:01:58;;;;;;;25.47;18.90;;;13.70;77.50;;;;;;5144048;28;20046;-29
2022/01/16 07:04:29;;;;;;;27.50;19.40;;;13.70;77.60;;;;;;5127155;28;20130;-30
2022/01/16 07:07:01;;;;;;;22.67;18.10;;;13.70;77.50;;;;;;5144102;28;20070;-32
2022/01/16 07:09:31;;;;;;;27.07;18.93;;;13.70;77.50;;;;;;5144056;28;20051;-30
2022/01/16 07:12:03;;;;;;;24.57;16.87;;;13.70;77.60;;;;;;5143792;28;20071;-30
2022/01/16 07:14:34;;;;;;;29.47;17.67;;;13.70;77.60;;;;;;5126707;28;20070;-30
2022/01/16 07:17:05;;;;;;;27.03;18.30;;;13.60;77.50;;;;;;5144268;28;20057;-30
2022/01/16 07:19:36;;;;;;;24.17;17.23;;;13.60;77.50;;;;;;5144095;28;20147;-30
2022/01/16 07:22:07;;;;;;;27.10;17.30;;;13.60;77.80;;;;;;5143977;28;20051;-31
2022/01/16 07:24:38;;;;;;;26.07;17.13;;;13.60;77.90;;;;;;5144207;28;20043;-32
2022/01/16 07:27:10;;;;;;;25.47;17.30;;;13.60;78.00;;;;;;5144095;28;20043;-31
2022/01/16 07:29:40;;;;;;;23.07;16.67;;;13.60;78.10;;;;;;5126910;28;20054;-32
2022/01/16 07:32:12;;;;;;;22.87;15.73;;;13.60;78.20;;;;;;5143986;28;20050;-31
2022/01/16 07:34:43;;;;;;;20.40;14.60;;;13.60;78.10;;;;;;5115167;28;20440;-31
2022/01/16 07:37:14;;;;;;;26.10;15.93;;;13.50;78.20;;;;;;5151186;28;20043;-31
2022/01/16 07:39:45;;;;;;;44.40;33.70;;;13.50;78.10;;;;;;5143694;28;20050;-31
2022/01/16 07:42:16;;;;;;;38.20;34.20;;;13.50;78.40;;;;;;5144512;28;20070;-30
2022/01/16 07:44:47;;;;;;;35.30;26.33;;;13.50;78.40;;;;;;5147736;28;20047;-30
2022/01/16 07:47:18;;;;;;;34.50;22.47;;;13.50;78.50;;;;;;5114627;28;20074;-30
2022/01/16 07:49:49;;;;;;;27.60;22.03;;;13.50;78.60;;;;;;5147910;28;20515;-30
2022/01/16 07:52:20;;;;;;;35.70;25.87;;;13.50;78.70;;;;;;5147541;28;20042;-31
2022/01/16 07:54:51;;;;;;;35.77;25.93;;;13.50;78.80;;;;;;5130421;28;20488;-31
2022/01/16 07:57:22;;;;;;;31.17;20.10;;;13.40;78.80;;;;;;5130010;28;20062;-32
2022/01/16 07:59:53;;;;;;;26.60;18.23;;;13.40;78.80;;;;;;5147107;28;20051;-31
2022/01/16 08:02:24;;;;;;;29.50;20.70;;;13.40;79.00;;;;;;5130248;28;20050;-31
2022/01/16 08:04:55;;;;;;;27.03;17.53;;;13.40;79.00;;;;;;5147447;28;20084;-30
2022/01/16 08:07:26;;;;;;;28.63;18.47;;;13.40;79.10;;;;;;5130035;28;20051;-31
2022/01/16 08:09:57;;;;;;;30.93;19.00;;;13.30;79.20;;;;;;5147074;28;20046;-30
2022/01/16 08:12:28;;;;;;;26.60;18.03;;;13.40;79.20;;;;;;5129940;28;20481;-31
2022/01/16 08:15:00;;;;;;;21.00;16.97;;;13.40;79.40;;;;;;5130948;28;20054;-30
2022/01/16 08:17:31;;;;;;;23.53;18.33;;;12.90;79.00;;;;;;5148584;28;20417;-31
2022/01/16 08:20:08;;;;;;;25.50;18.60;;;11.10;82.80;;;;;;5149409;28;20047;-30
2022/01/16 08:22:39;;;;;;;27.70;20.57;;;10.10;85.70;;;;;;5149443;28;20039;-30
2022/01/16 08:25:10;;;;;;;29.10;19.07;;;9.60;87.60;;;;;;5149555;28;20053;-30
2022/01/16 08:27:41;;;;;;;22.27;14.07;;;9.30;88.70;;;;;;5149461;28;20067;-30
2022/01/16 08:30:12;;;;;;;19.87;13.83;;;9.10;88.70;;;;;;5149059;28;20081;-30
2022/01/16 08:32:44;;;;;;;20.00;14.35;;;8.90;89.80;;;;;;5131982;28;20046;-30
2022/01/16 08:35:14;;;;;;;20.77;14.87;;;8.80;89.70;;;;;;5148926;28;20458;-30
2022/01/16 08:37:45;;;;;;;22.07;15.67;;;8.70;90.10;;;;;;5148968;28;20407;-29
2022/01/16 08:40:16;;;;;;;29.03;19.90;;;8.70;90.30;;;;;;5149335;28;20049;-30
2022/01/16 08:42:47;;;;;;;32.87;22.47;;;8.60;90.10;;;;;;5149029;28;20066;-30
2022/01/16 08:45:18;;;;;;;26.93;17.93;;;8.60;90.30;;;;;;5148033;28;20077;-30
2022/01/16 08:47:49;;;;;;;29.50;21.07;;;8.50;90.20;;;;;;5147991;28;20459;-29
2022/01/16 08:50:20;;;;;;;31.07;20.73;;;8.50;90.50;;;;;;5130984;28;20063;-30
2022/01/16 08:52:51;;;;;;;32.43;20.40;;;8.50;90.70;;;;;;5148345;28;20055;-30
2022/01/16 08:55:22;;;;;;;29.27;19.33;;;8.50;90.50;;;;;;5143942;28;20382;-29
2022/01/16 08:57:54;;;;;;;25.60;16.93;;;8.50;90.50;;;;;;5107972;29;20060;-29
2022/01/16 09:00:25;;;;;;;19.90;15.07;;;8.40;90.50;;;;;;5107859;29;20409;-30
2022/01/16 09:02:57;;;;;;;23.47;16.57;;;8.50;90.30;;;;;;5109422;29;20044;-29
2022/01/16 09:05:28;;;;;;;22.87;16.17;;;8.50;90.40;;;;;;5108434;29;20086;-29
2022/01/16 09:08:00;;;;;;;29.30;20.83;;;8.50;90.30;;;;;;5108434;29;20039;-29
2022/01/16 09:10:32;;;;;;;25.47;18.77;;;8.60;90.20;;;;;;5107890;29;20050;-29
2022/01/16 09:13:03;;;;;;;30.43;21.20;;;8.60;90.30;;;;;;5108395;29;20126;-30
2022/01/16 09:15:34;;;;;;;32.33;21.23;;;8.70;90.20;;;;;;5108502;29;20114;-30
2022/01/16 09:18:06;;;;;;;33.17;21.07;;;8.70;90.30;;;;;;5108488;29;20454;-29
2022/01/16 09:20:37;;;;;;;39.27;22.80;;;8.70;90.20;;;;;;5108553;29;20055;-28
2022/01/16 09:23:08;;;;;;;39.73;24.03;;;8.70;90.20;;;;;;5091488;29;20040;-29
2022/01/16 09:25:39;;;;;;;29.67;19.53;;;8.70;90.30;;;;;;5108244;29;20074;-29
2022/01/16 09:28:10;;;;;;;29.63;19.50;;;8.70;90.20;;;;;;5108635;29;20576;-29
2022/01/16 09:30:42;;;;;;;16.60;11.83;;;8.60;90.20;;;;;;5108317;29;20044;-29
2022/01/16 09:33:15;;;;;;;18.43;12.50;;;8.60;89.30;;;;;;5108340;29;20079;-29
2022/01/16 09:35:46;;;;;;;18.85;13.48;;;8.60;89.60;;;;;;5091774;29;20093;-29
2022/01/16 09:38:18;;;;;;;17.37;14.60;;;8.60;89.90;;;;;;5108038;29;20467;-30
2022/01/16 09:40:49;;;;;;;28.73;16.70;;;8.50;90.10;;;;;;5108036;29;20052;-28
2022/01/16 09:43:20;;;;;;;25.97;17.37;;;8.50;90.30;;;;;;5091235;29;20111;-29
2022/01/16 09:45:53;;;;;;;36.90;23.50;;;8.50;90.70;;;;;;5107826;29;20470;-29
2022/01/16 09:48:24;;;;;;;25.08;15.05;;;8.40;90.50;;;;;;5108579;29;20052;-29
2022/01/16 09:50:55;;;;;;;19.73;13.27;;;8.40;90.10;;;;;;5108408;29;20080;-30
2022/01/16 09:53:26;;;;;;;20.40;13.43;;;8.40;90.40;;;;;;5108012;29;20044;-30
2022/01/16 09:55:58;;;;;;;26.00;17.23;;;8.40;90.70;;;;;;5074885;29;20084;-29
2022/01/16 09:58:29;;;;;;;21.30;13.80;;;8.30;90.40;;;;;;5107750;29;20040;-30
2022/01/16 10:01:01;;;;;;;22.00;14.90;;;8.30;90.20;;;;;;5091077;29;20059;-29
2022/01/16 10:03:51;;;;;;;21.00;14.07;;;8.40;90.40;;;;;;5090125;29;20100;-29
2022/01/16 10:06:24;;;;;;;24.10;14.60;;;8.30;90.20;;;;;;5090598;29;20494;-29
2022/01/16 10:08:55;;;;;;;34.83;18.15;;;8.30;90.50;;;;;;5090705;29;20062;-30
2022/01/16 10:11:38;;;;;;;26.47;17.53;;;8.30;90.30;;;;;;5107767;29;20130;-29
2022/01/16 10:14:15;;;;;;;28.43;17.37;;;8.30;90.80;;;;;;5107656;29;20410;-30
2022/01/16 10:16:46;;;;;;;23.97;14.50;;;8.20;90.70;;;;;;5107788;29;20051;-29
2022/01/16 10:19:21;;;;;;;19.87;12.67;;;8.30;90.50;;;;;;5090361;29;20056;-30
2022/01/16 10:21:54;;;;;;;24.93;15.00;;;8.20;90.70;;;;;;5108011;29;20462;-30
2022/01/16 10:24:29;;;;;;;20.20;13.83;;;8.20;90.50;;;;;;5107333;29;20066;-30
2022/01/16 10:27:10;;;;;;;31.30;19.50;;;8.20;90.50;;;;;;5106795;29;20471;-29
2022/01/16 10:29:49;;;;;;;32.60;19.70;;;8.10;90.60;;;;;;5107135;29;20126;-29
2022/01/16 10:32:28;;;;;;;43.60;22.13;;;8.10;90.90;;;;;;5107881;29;20047;-30
2022/01/16 10:35:20;;;;;;;31.17;20.27;;;8.10;91.30;;;;;;5107410;29;20050;-30
2022/01/16 10:37:53;;;;;;;29.30;18.20;;;8.10;91.10;;;;;;5107069;29;20051;-29
2022/01/16 10:40:32;;;;;;;30.20;19.20;;;8.10;91.00;;;;;;5106843;29;20062;-29
2022/01/16 10:43:06;;;;;;;25.27;15.83;;;8.10;91.20;;;;;;5046498;29;20388;-29
2022/01/16 10:45:37;;;;;;;24.83;16.57;;;8.20;91.20;;;;;;5031339;29;20057;-30
2022/01/16 10:48:08;;;;;;;35.73;22.80;;;8.20;91.20;;;;;;5045698;29;20057;-30
2022/01/16 10:50:43;;;;;;;30.33;18.77;;;8.20;91.20;;;;;;5045298;29;20049;-30
2022/01/16 10:53:15;;;;;;;29.60;19.60;;;8.20;91.10;;;;;;5045751;29;20065;-29
2022/01/16 10:55:51;;;;;;;25.92;16.52;;;8.20;91.40;;;;;;5030095;29;20124;-29
2022/01/16 10:58:29;;;;;;;20.93;13.90;;;8.20;91.50;;;;;;5045210;29;20543;-29
2022/01/16 11:01:05;;;;;;;22.20;13.60;;;8.20;91.90;;;;;;5029863;29;20065;-29
2022/01/16 11:03:39;;;;;;;24.93;15.43;;;8.20;91.50;;;;;;5045450;29;20052;-29
2022/01/16 11:06:11;;;;;;;16.33;12.07;;;8.20;91.70;;;;;;5042935;29;20500;-29
2022/01/16 11:08:53;;;;;;;27.27;16.37;;;8.20;91.90;;;;;;5029615;29;20080;-29
2022/01/16 11:11:25;;;;;;;19.77;13.73;;;8.20;91.40;;;;;;5045124;29;20140;-30
2022/01/16 11:13:56;;;;;;;22.33;15.27;;;8.20;92.00;;;;;;5077270;29;20147;-30
2022/01/16 11:16:27;;;;;;;20.30;14.87;;;8.20;91.70;;;;;;5107569;29;20050;-30
2022/01/16 11:18:58;;;;;;;24.10;15.33;;;8.20;91.80;;;;;;5110044;29;20414;-28
2022/01/16 11:21:31;;;;;;;24.93;16.57;;;8.20;92.20;;;;;;5077385;29;20474;-30
2022/01/16 11:24:26;;;;;;;20.10;13.02;;;8.20;91.80;;;;;;5093132;29;20040;-29
2022/01/16 11:26:59;;;;;;;24.40;18.33;;;8.20;92.00;;;;;;5108710;29;20054;-29
2022/01/16 11:29:30;;;;;;;26.10;19.77;;;8.20;92.10;;;;;;5109780;29;20047;-30
2022/01/16 11:39:36;;;;;;;25.23;17.63;;;8.20;92.10;;;;;;5109511;29;20036;-30
2022/01/16 11:42:15;;;;;;;25.10;17.63;;;8.30;91.90;;;;;;5093985;29;20044;-30
2022/01/16 11:44:52;;;;;;;24.13;16.30;;;8.30;91.80;;;;;;5108901;29;20131;-29
2022/01/16 11:47:24;;;;;;;28.37;18.33;;;8.30;91.90;;;;;;5109695;29;20058;-30
2022/01/16 11:49:57;;;;;;;32.67;21.27;;;8.30;91.80;;;;;;5093269;29;20051;-30
2022/01/16 11:52:30;;;;;;;31.90;22.50;;;8.30;91.60;;;;;;5077855;29;20414;-30
2022/01/16 11:55:12;;;;;;;31.57;22.47;;;8.30;91.80;;;;;;5077155;29;20051;-30
2022/01/16 11:57:56;;;;;;;29.40;18.97;;;8.30;92.00;;;;;;5109461;29;20059;-29
2022/01/16 12:00:42;;;;;;;27.40;18.40;;;8.30;91.80;;;;;;5109515;29;20196;-30
2022/01/16 12:03:34;;;;;;;29.87;19.87;;;8.30;91.90;;;;;;5093066;29;20052;-30
2022/01/16 12:06:31;;;;;;;28.80;19.90;;;8.30;92.10;;;;;;5109681;29;20545;-30
2022/01/16 12:09:04;;;;;;;34.73;20.13;;;8.30;92.20;;;;;;5048902;29;20060;-29
2022/01/16 12:11:36;;;;;;;39.33;25.70;;;8.30;92.00;;;;;;5048651;29;20534;-30
2022/01/16 12:14:07;;;;;;;35.03;25.83;;;8.30;92.00;;;;;;5047923;29;20056;-30
2022/01/16 12:16:43;;;;;;;32.10;21.57;;;8.30;92.30;;;;;;5047898;29;20049;-30
2022/01/16 12:19:33;;;;;;;29.30;21.50;;;8.30;92.10;;;;;;5032991;29;20607;-29
2022/01/16 12:22:08;;;;;;;34.43;25.27;;;8.30;92.00;;;;;;5048560;29;20491;-30
2022/01/16 12:24:44;;;;;;;35.47;23.77;;;8.30;92.20;;;;;;5048680;29;20045;-30
2022/01/16 12:27:25;;;;;;;37.43;24.37;;;8.30;92.20;;;;;;5047868;29;20529;-30
2022/01/16 12:30:14;;;;;;;37.40;25.10;;;8.30;92.20;;;;;;5048345;29;20049;-30
2022/01/16 12:32:51;;;;;;;32.90;23.07;;;8.30;92.40;;;;;;5048351;29;20566;-30
2022/01/16 12:35:41;;;;;;;31.17;23.10;;;8.30;92.70;;;;;;5048646;29;20465;-29
2022/01/16 12:38:26;;;;;;;34.73;23.63;;;8.40;92.30;;;;;;5048313;29;20432;-30
2022/01/16 12:41:16;;;;;;;54.53;43.60;;;8.40;92.30;;;;;;5046702;29;20053;-28
2022/01/16 12:43:57;;;;;;;31.43;23.83;;;8.40;92.30;;;;;;5013784;29;20543;-29
2022/01/16 12:46:39;;;;;;;34.20;23.27;;;8.40;92.30;;;;;;5050872;29;20053;-29
2022/01/16 12:49:19;;;;;;;34.23;22.60;;;8.40;92.20;;;;;;4990501;29;20104;-29
2022/01/16 12:51:52;;;;;;;34.77;24.87;;;8.50;92.50;;;;;;5005965;29;20058;-29
2022/01/16 12:54:28;;;;;;;34.60;24.42;;;8.60;92.10;;;;;;4976104;29;20430;-30
2022/01/16 12:57:00;;;;;;;30.53;23.00;;;8.60;92.10;;;;;;4990490;29;20579;-29
2022/01/16 12:59:36;;;;;;;32.43;22.83;;;8.60;92.30;;;;;;4990290;29;20532;-29
2022/01/16 13:02:07;;;;;;;33.23;23.53;;;8.60;92.10;;;;;;4991235;29;20087;-29
2022/01/16 13:04:45;;;;;;;32.10;24.37;;;8.60;92.10;;;;;;4990689;29;20176;-30
2022/01/16 13:07:16;;;;;;;34.27;24.57;;;8.60;92.00;;;;;;4990539;29;20065;-30
2022/01/16 13:09:47;;;;;;;36.50;25.70;;;8.60;92.10;;;;;;4990575;29;20059;-29
2022/01/16 13:12:18;;;;;;;36.17;23.93;;;8.60;92.30;;;;;;4990250;29;20050;-30
2022/01/16 13:14:49;;;;;;;41.97;28.63;;;8.60;92.50;;;;;;5027245;29;20531;-29
2022/01/16 13:17:20;;;;;;;32.43;23.27;;;8.60;92.20;;;;;;5056068;29;20060;-28
2022/01/16 13:19:53;;;;;;;34.37;22.53;;;8.60;92.20;;;;;;5070910;29;20055;-29
2022/01/16 13:22:28;;;;;;;40.17;26.70;;;8.60;92.20;;;;;;5105469;29;20051;-29
2022/01/16 13:25:06;;;;;;;35.80;25.20;;;8.60;92.30;;;;;;5079015;29;20826;-30
2022/01/16 13:27:42;;;;;;;47.83;30.80;;;8.60;92.10;;;;;;5087302;29;20085;-29
2022/01/16 13:30:28;;;;;;;39.47;25.30;;;8.60;92.20;;;;;;5080438;29;20054;-30
2022/01/16 13:33:04;;;;;;;42.83;28.87;;;8.60;92.40;;;;;;5086570;29;20145;-29
2022/01/16 13:35:38;;;;;;;41.70;28.77;;;8.70;92.50;;;;;;5105634;29;20387;-29
2022/01/16 13:45:48;;;;;;;31.63;23.33;;;8.70;92.80;;;;;;5104992;29;20397;-29
2022/01/16 13:48:29;;;;;;;38.33;28.30;;;8.60;92.70;;;;;;5087894;29;20044;-30
2022/01/16 13:51:02;;;;;;;35.90;24.37;;;8.70;92.80;;;;;;5085555;29;20480;-28
2022/01/16 13:53:37;;;;;;;30.80;24.03;;;8.70;92.90;;;;;;5085744;29;20048;-29
2022/01/16 13:56:27;;;;;;;38.43;25.83;;;8.70;92.80;;;;;;5096242;29;20063;-29
2022/01/16 13:58:58;;;;;;;39.63;25.60;;;8.70;92.80;;;;;;5081592;29;20055;-29
2022/01/16 14:01:33;;;;;;;37.20;25.67;;;8.70;92.70;;;;;;5105410;29;20500;-30